createdAt,value
2023-04-08T00:01:30.354Z,100849.28
2023-04-08T00:06:31.803Z,100855.81
2023-04-08T00:11:32.951Z,100854.22
2023-04-08T00:16:34.152Z,100856.06
2023-04-08T00:21:35.401Z,100860.00
2023-04-08T00:26:36.775Z,100858.44
2023-04-08T00:31:37.918Z,100860.78
2023-04-08T00:36:39.236Z,100866.03
2023-04-08T00:41:40.406Z,100862.09
2023-04-08T00:46:41.688Z,100828.81
2023-04-08T00:51:42.871Z,100868.38
2023-04-08T00:56:44.097Z,100866.81
2023-04-08T01:01:45.444Z,100868.66
2023-04-08T01:06:46.943Z,100868.66
2023-04-08T01:11:48.148Z,100878.84
2023-04-08T01:16:49.284Z,100874.66
2023-04-08T01:21:50.507Z,100877.50
2023-04-08T01:26:51.720Z,100873.09
2023-04-08T01:31:52.951Z,100879.63
2023-04-08T01:36:54.130Z,100877.53
2023-04-08T01:41:55.302Z,100874.38
2023-04-08T01:46:56.558Z,100874.38
2023-04-08T01:51:58.949Z,100878.03
2023-04-08T01:57:01.568Z,100881.47
2023-04-08T02:02:02.905Z,100883.81
2023-04-08T02:07:04.227Z,100883.56
2023-04-08T02:12:05.387Z,100889.56
2023-04-08T02:17:06.635Z,100895.06
2023-04-08T02:22:07.884Z,100887.97
2023-04-08T02:27:09.281Z,100883.81
2023-04-08T02:32:10.437Z,100881.72
2023-04-08T02:37:11.640Z,100882.22
2023-04-08T02:42:12.783Z,100884.84
2023-04-08T02:47:13.953Z,100886.44
2023-04-08T02:52:15.498Z,100888.50
2023-04-08T02:57:17.054Z,100884.84
2023-04-08T03:02:18.328Z,100897.94
2023-04-08T03:07:19.554Z,100905.00
2023-04-08T03:12:21.128Z,100895.81
2023-04-08T03:17:22.334Z,100890.09
2023-04-08T03:22:24.362Z,100902.38
2023-04-08T03:27:25.740Z,100903.16
2023-04-08T03:32:26.945Z,100908.38
2023-04-08T03:37:28.170Z,100906.81
2023-04-08T03:42:29.335Z,100912.59
2023-04-08T03:47:30.602Z,100904.19
2023-04-08T03:52:31.963Z,100908.38
2023-04-08T03:57:33.148Z,100906.78
2023-04-08T04:02:34.499Z,100905.22
2023-04-08T04:07:35.860Z,100906.25
2023-04-08T04:12:37.036Z,100913.56
2023-04-08T04:17:38.214Z,100908.78
2023-04-08T04:22:39.401Z,100909.75
2023-04-08T04:27:40.533Z,100913.81
2023-04-08T04:32:42.754Z,100922.53
2023-04-08T04:37:43.950Z,100929.81
2023-04-08T04:42:45.352Z,100942.66
2023-04-08T04:47:46.584Z,100937.25
2023-04-08T04:52:47.821Z,100932.31
2023-04-08T04:57:49.031Z,100933.09
2023-04-08T05:02:50.367Z,100934.16
2023-04-08T05:07:51.720Z,100937.84
2023-04-08T05:12:52.878Z,100943.34
2023-04-08T05:17:54.065Z,100946.28
2023-04-08T05:22:55.310Z,100949.41
2023-04-08T05:27:56.590Z,100960.44
2023-04-08T05:33:00.174Z,100966.66
2023-04-08T05:38:01.904Z,100971.63
2023-04-08T05:43:03.100Z,100969.31
2023-04-08T05:48:04.278Z,100984.53
2023-04-08T05:53:05.911Z,100986.91
2023-04-08T05:58:07.088Z,100985.09
2023-04-08T06:03:08.367Z,100989.50
2023-04-08T06:08:09.655Z,100992.44
2023-04-08T06:13:10.919Z,101012.25
2023-04-08T06:18:12.161Z,101004.09
2023-04-08T06:23:13.317Z,101005.69
2023-04-08T06:28:14.556Z,101007.13
2023-04-08T06:33:15.958Z,101010.59
2023-04-08T06:38:17.113Z,101026.50
2023-04-08T06:43:18.254Z,101023.41
2023-04-08T06:48:19.453Z,101025.91
2023-04-08T06:53:20.689Z,101021.75
2023-04-08T06:58:21.958Z,101038.56
2023-04-08T07:03:23.294Z,101033.88
2023-04-08T07:08:24.552Z,101039.66
2023-04-08T07:13:25.791Z,101037.25
2023-04-08T07:18:26.985Z,101035.53
2023-04-08T07:23:28.130Z,101039.22
2023-04-08T07:28:29.279Z,101058.34
2023-04-08T07:33:30.517Z,101050.25
2023-04-08T07:38:31.737Z,101062.06
2023-04-08T07:43:34.310Z,101062.06
2023-04-08T07:48:35.639Z,101075.41
2023-04-08T07:53:36.814Z,101084.38
2023-04-08T07:58:38.479Z,101081.25
2023-04-08T08:03:39.990Z,101087.22
2023-04-08T08:08:41.255Z,101091.31
2023-04-08T08:13:42.502Z,101100.97
2023-04-08T08:18:43.886Z,101106.97
2023-04-08T08:23:45.111Z,101103.34
2023-04-08T08:28:46.432Z,101109.66
2023-04-08T08:33:47.590Z,101107.88
2023-04-08T08:38:48.950Z,101121.19
2023-04-08T08:43:50.472Z,101112.81
2023-04-08T08:48:51.852Z,101117.50
2023-04-08T08:53:53.203Z,101126.69
2023-04-08T08:58:54.703Z,101125.16
2023-04-08T09:03:56.130Z,101119.69
2023-04-08T09:08:57.343Z,101123.91
2023-04-08T09:13:58.535Z,101128.38
2023-04-08T09:18:59.735Z,101130.69
2023-04-08T09:24:00.994Z,101133.41
2023-04-08T09:29:10.954Z,101131.88
2023-04-08T09:34:21.806Z,101135.56
2023-04-08T09:39:23.037Z,101139.19
2023-04-08T09:44:24.990Z,101147.09
2023-04-08T09:49:27.048Z,101145.50
2023-04-08T09:54:28.270Z,101149.19
2023-04-08T09:59:29.446Z,101146.56
2023-04-08T10:04:30.763Z,101140.78
2023-04-08T10:09:32.664Z,101139.69
2023-04-08T10:14:34.134Z,101135.34
2023-04-08T10:19:35.324Z,101139.97
2023-04-08T10:24:37.057Z,101149.28
2023-04-08T10:29:38.294Z,101148.22
2023-04-08T10:34:39.458Z,101153.88
2023-04-08T10:39:40.654Z,101150.19
2023-04-08T10:44:41.832Z,101152.88
2023-04-08T10:49:43.651Z,101148.38
2023-04-08T10:54:44.868Z,101139.41
2023-04-08T10:59:46.436Z,101142.97
2023-04-08T11:04:48.382Z,101131.88
2023-04-08T11:09:49.666Z,101131.81
2023-04-08T11:14:52.504Z,101131.34
2023-04-08T11:19:53.706Z,101125.53
2023-04-08T11:24:54.945Z,101134.41
2023-04-08T11:29:56.340Z,101124.97
2023-04-08T11:34:57.558Z,101129.22
2023-04-08T11:39:58.764Z,101127.34
2023-04-08T11:44:59.964Z,101131.16
2023-04-08T11:50:01.675Z,101136.13
2023-04-08T11:55:03.006Z,101125.03
2023-04-08T12:00:05.682Z,101126.25
2023-04-08T12:05:07.826Z,101122.94
2023-04-08T12:10:09.213Z,101124.84
2023-04-08T12:15:11.088Z,101123.91
2023-04-08T12:20:12.264Z,101121.47
2023-04-08T12:25:13.462Z,101127.38
2023-04-08T12:30:16.418Z,101134.75
2023-04-08T12:35:17.933Z,101135.19
2023-04-08T12:40:19.224Z,101134.06
2023-04-08T12:45:20.436Z,101133.91
2023-04-08T12:50:21.656Z,101132.28
2023-04-08T12:55:25.000Z,101134.78
2023-04-08T13:00:26.653Z,101121.47
2023-04-08T13:05:41.910Z,101115.31
2023-04-08T13:10:44.217Z,101122.34
2023-04-08T13:15:45.410Z,101138.78
2023-04-08T13:20:46.876Z,101138.00
2023-04-08T13:25:48.333Z,101127.84
2023-04-08T13:30:49.789Z,101123.53
2023-04-08T13:35:50.981Z,101125.25
2023-04-08T13:40:52.182Z,101119.50
2023-04-08T13:45:53.403Z,101110.84
2023-04-08T13:50:54.653Z,101114.53
2023-04-08T13:55:57.099Z,101108.91
2023-04-08T14:00:58.375Z,101106.38
2023-04-08T14:06:01.568Z,101113.78
2023-04-08T14:11:03.061Z,101097.50
2023-04-08T14:16:04.353Z,101099.94
2023-04-08T14:21:07.275Z,101094.88
2023-04-08T14:26:08.443Z,101094.94
2023-04-08T14:31:09.732Z,101089.31
2023-04-08T14:36:11.050Z,101091.59
2023-04-08T14:41:12.313Z,101096.13
2023-04-08T14:46:13.563Z,101103.38
2023-04-08T14:51:14.837Z,101096.50
2023-04-08T14:56:16.308Z,101110.53
2023-04-08T15:01:17.610Z,101096.06
2023-04-08T15:06:22.640Z,101094.13
2023-04-08T15:11:23.882Z,101103.50
2023-04-08T15:16:25.317Z,101103.78
2023-04-08T15:21:26.828Z,101101.59
2023-04-08T15:26:28.004Z,101102.31
2023-04-08T15:31:29.216Z,101106.22
2023-04-08T15:36:30.414Z,101105.53
2023-04-08T15:41:32.395Z,101110.38
2023-04-08T15:46:35.030Z,101106.50
2023-04-08T15:51:38.136Z,101096.25
2023-04-08T15:56:39.733Z,101115.13
2023-04-08T16:01:40.974Z,101115.81
2023-04-08T16:06:42.183Z,101116.69
2023-04-08T16:11:43.592Z,101115.91
2023-04-08T16:16:44.857Z,101115.91
2023-04-08T16:21:46.154Z,101122.22
2023-04-08T16:26:47.351Z,101119.34
2023-04-08T16:31:49.517Z,101127.66
2023-04-08T16:36:51.771Z,101119.56
2023-04-08T16:41:52.969Z,101119.06
2023-04-08T16:46:54.137Z,101124.91
2023-04-08T16:51:55.489Z,101115.41
2023-04-08T16:56:56.935Z,101125.94
2023-04-08T17:01:58.246Z,101118.06
2023-04-08T17:06:59.741Z,101075.31
2023-04-08T17:12:02.044Z,101118.09
2023-04-08T17:17:03.300Z,101117.09
2023-04-08T17:22:04.540Z,101136.56
2023-04-08T17:27:06.020Z,101137.88
2023-04-08T17:32:07.590Z,101140.78
2023-04-08T17:37:10.147Z,101134.50
2023-04-08T17:42:11.424Z,101133.97
2023-04-08T17:47:12.634Z,101137.66
2023-04-08T17:52:14.364Z,101143.94
2023-04-08T17:57:15.584Z,101143.94
2023-04-08T18:02:16.843Z,101154.44
2023-04-08T18:07:18.118Z,101164.09
2023-04-08T18:12:19.712Z,101162.53
2023-04-08T18:17:20.940Z,101163.53
2023-04-08T18:22:22.571Z,101165.59
2023-04-08T18:27:23.775Z,101168.69
2023-04-08T18:32:25.063Z,101181.50
2023-04-08T18:37:26.640Z,101186.13
2023-04-08T18:42:27.819Z,101185.06
2023-04-08T18:47:29.032Z,101191.56
2023-04-08T18:52:32.070Z,101188.63
2023-04-08T18:57:34.440Z,101195.16
2023-04-08T19:02:35.685Z,101189.59
2023-04-08T19:07:36.874Z,101190.56
2023-04-08T19:12:38.080Z,101198.09
2023-04-08T19:17:39.242Z,101207.19
2023-04-08T19:22:40.860Z,101208.69
2023-04-08T19:27:42.039Z,101204.94
2023-04-08T19:32:43.377Z,101217.97
2023-04-08T19:37:44.596Z,101216.63
2023-04-08T19:42:46.119Z,101213.09
2023-04-08T19:47:47.501Z,101207.81
2023-04-08T19:52:48.772Z,101215.13
2023-04-08T19:57:51.758Z,101210.94
2023-04-08T20:02:53.068Z,101211.22
2023-04-08T20:07:54.273Z,101216.13
2023-04-08T20:12:55.639Z,101215.66
2023-04-08T20:17:56.927Z,101222.06
2023-04-08T20:22:58.108Z,101225.28
2023-04-08T20:27:59.304Z,101227.75
2023-04-08T20:33:00.961Z,101221.81
2023-04-08T20:38:02.508Z,101217.13
2023-04-08T20:43:03.714Z,101215.00
2023-04-08T20:48:05.578Z,101204.56
2023-04-08T20:53:09.252Z,101209.84
2023-04-08T20:58:10.990Z,101200.47
2023-04-08T21:03:12.996Z,101203.38
2023-04-08T21:08:14.201Z,101198.94
2023-04-08T21:13:15.444Z,101200.09
2023-04-08T21:18:16.640Z,101170.63
2023-04-08T21:23:17.799Z,101207.97
2023-04-08T21:28:19.116Z,101209.00
2023-04-08T21:33:20.353Z,101200.34
2023-04-08T21:38:21.575Z,101204.25
2023-04-08T21:43:22.761Z,101206.31
2023-04-08T21:48:23.927Z,101210.47
2023-04-08T21:53:25.102Z,101202.31
2023-04-08T21:58:28.039Z,101207.00
2023-04-08T22:03:29.237Z,101199.41
2023-04-08T22:08:32.344Z,101207.75
2023-04-08T22:13:33.500Z,101208.81
2023-04-08T22:18:34.639Z,101207.19
2023-04-08T22:23:35.798Z,101215.78
2023-04-08T22:28:37.579Z,101211.84
2023-04-08T22:33:38.761Z,101221.97
2023-04-08T22:38:39.916Z,101214.34
2023-04-08T22:43:41.246Z,101215.03
2023-04-08T22:48:42.440Z,101208.44
2023-04-08T22:53:43.767Z,101201.03
2023-04-08T22:58:44.934Z,101209.31
2023-04-08T23:03:46.329Z,101209.75
2023-04-08T23:08:47.482Z,101220.16
2023-04-08T23:13:48.736Z,101218.75
2023-04-08T23:18:49.998Z,101206.44
2023-04-08T23:23:51.345Z,101202.69
2023-04-08T23:28:52.992Z,101204.22
2023-04-08T23:33:54.516Z,101211.38
2023-04-08T23:38:55.727Z,101208.34
2023-04-08T23:43:56.965Z,101211.06
2023-04-08T23:48:58.151Z,101213.59
2023-04-08T23:53:59.322Z,101217.78
2023-04-08T23:59:00.497Z,101216.03
